Главная страница
METAR-TAF:

METAR-TAF

Аэропорты :

Эсбьерг, Дания

широта: 55-32N, долгота: 008-34E, высота над уровнем моря: 30 м

Текущие метеонаблюдения

Эта сводка был подготовлена 20 минут назад, в 02:50 UTC
Ветер 3 Узел от юго-западный
Температура 3°C
Влажность 93%
Давление 1029 hPa
Видимость 10 км и более

METAR: EKEB 240250Z AUTO 23003KT 9999 SCT150/// 03/02 Q1029

Время: 04:10 (03:10 UTC)

Прогноз

Эта сводка был подготовлена 9 часа и 48 минут назад, в 17:22 UTC
Прогноз действительный с 23-го 18 UTC до 23-го 23 UTC
Ветер 10 Узел от западно-северо-западный
Видимость 10 км и более
Отдельные облака на высоте 2500 фута

TAF: EKEB 231722Z 2318/2323 29010KT 9999 SCT025

Метеонаблюдения и прогнозы для более 4000 аэропортов (сводки METAR и TAF).

Имеющиеся станции представлены на карте желтыми и красными точками.

Чтобы увидеть название станции, наведите на нее мышь.

Затем щелкните, чтобы увидеть метеонаблюдения и метеопрогнозы.

Управление картой: чтобы увеличить масштаб, щелкните зеленые кнопки с черным крестиком; чтобы уменьшить масштаб, щелкните зеленую кнопку с тире; для просмотра соседних карт щелкайте зеленые стрелки.


METAR-TAF: